createdAt,value
2023-12-03T00:02:24.218Z,21.95
2023-12-03T00:04:54.883Z,24.17
2023-12-03T00:07:24.966Z,19.48
2023-12-03T00:09:52.743Z,18.67
2023-12-03T00:12:19.663Z,22.52
2023-12-03T00:14:47.078Z,19.33
2023-12-03T00:17:13.879Z,19.23
2023-12-03T00:19:41.577Z,19.15
2023-12-03T00:22:09.782Z,20.88
2023-12-03T00:24:36.728Z,21.70
2023-12-03T00:27:04.130Z,24.45
2023-12-03T00:29:30.963Z,21.13
2023-12-03T00:31:57.859Z,19.92
2023-12-03T00:34:24.816Z,23.48
2023-12-03T00:36:51.833Z,20.63
2023-12-03T00:39:18.696Z,20.10
2023-12-03T00:41:45.598Z,19.27
2023-12-03T00:44:12.820Z,22.27
2023-12-03T00:46:39.657Z,16.33
2023-12-03T00:49:06.618Z,16.83
2023-12-03T00:51:33.785Z,18.90
2023-12-03T00:54:00.879Z,20.30
2023-12-03T00:56:27.738Z,22.13
2023-12-03T00:58:55.193Z,17.33
2023-12-03T01:01:22.111Z,17.80
2023-12-03T01:03:48.991Z,17.85
2023-12-03T01:06:15.977Z,18.38
2023-12-03T01:08:43.019Z,21.27
2023-12-03T01:11:10.789Z,22.88
2023-12-03T01:13:37.921Z,19.20
2023-12-03T01:16:05.722Z,19.27
2023-12-03T01:18:32.649Z,22.65
2023-12-03T01:20:59.592Z,20.02
2023-12-03T01:23:26.422Z,17.20
2023-12-03T01:25:53.352Z,22.13
2023-12-03T01:28:22.024Z,21.60
2023-12-03T01:30:49.045Z,22.55
2023-12-03T01:33:15.977Z,19.48
2023-12-03T01:35:43.004Z,22.60
2023-12-03T01:38:09.879Z,18.80
2023-12-03T01:40:36.689Z,22.05
2023-12-03T01:43:03.822Z,19.65
2023-12-03T01:45:31.795Z,19.15
2023-12-03T01:47:59.192Z,22.02
2023-12-03T01:50:27.405Z,20.60
2023-12-03T01:52:55.078Z,23.02
2023-12-03T01:55:23.080Z,14.90
2023-12-03T01:57:50.113Z,19.92
2023-12-03T02:00:17.444Z,17.83
2023-12-03T02:02:44.466Z,20.40
2023-12-03T02:05:11.450Z,19.95
2023-12-03T02:07:38.401Z,23.73
2023-12-03T02:10:06.857Z,18.63
2023-12-03T02:12:33.943Z,22.00
2023-12-03T02:15:00.851Z,20.63
2023-12-03T02:17:28.065Z,19.55
2023-12-03T02:19:55.980Z,17.88
2023-12-03T02:22:22.802Z,17.42
2023-12-03T02:24:49.700Z,19.80
2023-12-03T02:27:16.871Z,22.30
2023-12-03T02:29:49.183Z,16.88
2023-12-03T02:32:16.051Z,18.55
2023-12-03T02:34:42.902Z,18.90
2023-12-03T02:37:09.692Z,16.60
2023-12-03T02:39:36.730Z,17.30
2023-12-03T02:42:04.086Z,15.63
2023-12-03T02:44:30.986Z,14.75
2023-12-03T02:46:57.820Z,14.43
2023-12-03T02:49:24.751Z,16.55
2023-12-03T02:51:51.659Z,15.70
2023-12-03T02:54:18.699Z,16.17
2023-12-03T02:56:46.902Z,15.18
2023-12-03T02:59:13.864Z,17.55
2023-12-03T03:01:40.651Z,15.18
2023-12-03T03:04:07.565Z,15.48
2023-12-03T03:06:34.349Z,16.05
2023-12-03T03:09:01.163Z,16.27
2023-12-03T03:11:28.014Z,17.55
2023-12-03T03:13:54.789Z,16.23
2023-12-03T03:16:25.804Z,17.10
2023-12-03T03:18:53.025Z,14.10
2023-12-03T03:21:19.853Z,16.10
2023-12-03T03:23:46.651Z,17.65
2023-12-03T03:26:13.473Z,15.32
2023-12-03T03:28:40.316Z,14.88
2023-12-03T03:31:07.555Z,19.50
2023-12-03T03:33:34.776Z,15.52
2023-12-03T03:36:01.657Z,17.17
2023-12-03T03:38:28.580Z,15.07
2023-12-03T03:40:55.556Z,13.98
2023-12-03T03:43:22.655Z,11.65
2023-12-03T03:45:49.580Z,12.48
2023-12-03T03:48:16.589Z,14.80
2023-12-03T03:50:43.484Z,12.27
2023-12-03T03:53:10.322Z,14.52
2023-12-03T03:55:37.143Z,15.57
2023-12-03T03:58:04.263Z,13.32
2023-12-03T04:00:31.797Z,16.38
2023-12-03T04:02:58.749Z,13.45
2023-12-03T04:05:25.564Z,16.35
2023-12-03T04:07:53.341Z,15.95
2023-12-03T04:10:20.257Z,13.82
2023-12-03T04:12:48.150Z,13.02
2023-12-03T04:15:15.411Z,12.80
2023-12-03T04:17:42.373Z,13.45
2023-12-03T04:20:09.872Z,19.00
2023-12-03T04:22:36.711Z,13.73
2023-12-03T04:25:03.733Z,14.35
2023-12-03T04:27:30.592Z,13.77
2023-12-03T04:29:57.374Z,13.32
2023-12-03T04:32:24.163Z,12.45
2023-12-03T04:34:51.185Z,12.45
2023-12-03T04:37:18.024Z,13.45
2023-12-03T04:39:45.041Z,13.73
2023-12-03T04:42:12.479Z,15.10
2023-12-03T04:44:39.283Z,10.90
2023-12-03T04:47:06.279Z,13.85
2023-12-03T04:49:33.151Z,15.52
2023-12-03T04:52:00.061Z,14.98
2023-12-03T04:54:27.042Z,13.18
2023-12-03T04:56:53.991Z,14.43
2023-12-03T04:59:20.814Z,12.13
2023-12-03T05:01:47.671Z,14.20
2023-12-03T05:04:14.872Z,15.30
2023-12-03T05:06:41.757Z,11.23
2023-12-03T05:09:10.133Z,12.23
2023-12-03T05:11:41.729Z,10.90
2023-12-03T05:14:09.662Z,13.00
2023-12-03T05:16:36.657Z,11.57
2023-12-03T05:19:03.846Z,11.68
2023-12-03T05:21:30.937Z,11.85
2023-12-03T05:23:57.815Z,12.85
2023-12-03T05:26:25.348Z,14.07
2023-12-03T05:28:52.121Z,13.45
2023-12-03T05:31:18.958Z,14.20
2023-12-03T05:33:45.759Z,13.50
2023-12-03T05:36:22.730Z,13.32
2023-12-03T05:38:51.965Z,15.02
2023-12-03T05:41:18.767Z,12.10
2023-12-03T05:43:45.549Z,14.02
2023-12-03T05:46:12.502Z,15.05
2023-12-03T05:48:39.437Z,15.57
2023-12-03T05:51:11.620Z,12.00
2023-12-03T05:53:38.594Z,11.93
2023-12-03T05:56:06.792Z,13.90
2023-12-03T05:58:33.600Z,12.93
2023-12-03T06:01:01.196Z,11.40
2023-12-03T06:03:28.353Z,12.23
2023-12-03T06:05:56.618Z,13.85
2023-12-03T06:08:23.407Z,13.48
2023-12-03T06:10:50.235Z,13.32
2023-12-03T06:13:17.045Z,11.90
2023-12-03T06:15:43.900Z,11.25
2023-12-03T06:18:10.807Z,12.70
2023-12-03T06:20:37.593Z,15.70
2023-12-03T06:23:04.754Z,17.15
2023-12-03T06:25:31.559Z,13.50
2023-12-03T06:27:58.345Z,11.25
2023-12-03T06:30:25.101Z,14.13
2023-12-03T06:32:52.263Z,14.00
2023-12-03T06:35:19.243Z,15.25
2023-12-03T06:37:46.065Z,11.98
2023-12-03T06:40:16.195Z,13.30
2023-12-03T06:42:43.051Z,16.80
2023-12-03T06:45:12.399Z,16.70
2023-12-03T06:47:39.340Z,16.98
2023-12-03T06:50:06.985Z,19.27
2023-12-03T06:52:34.220Z,13.35
2023-12-03T06:55:00.996Z,11.98
2023-12-03T06:57:27.820Z,13.05
2023-12-03T06:59:54.631Z,16.17
2023-12-03T07:02:21.474Z,10.13
2023-12-03T07:04:48.560Z,12.82
2023-12-03T07:07:15.382Z,12.80
2023-12-03T07:09:42.140Z,14.55
2023-12-03T07:12:09.832Z,16.23
2023-12-03T07:14:36.967Z,14.75
2023-12-03T07:17:04.078Z,18.08
2023-12-03T07:19:30.984Z,14.60
2023-12-03T07:21:58.485Z,18.45
2023-12-03T07:24:25.428Z,21.77
2023-12-03T07:26:52.263Z,16.77
2023-12-03T07:29:19.880Z,14.80
2023-12-03T07:31:46.766Z,17.17
2023-12-03T07:34:13.599Z,16.75
2023-12-03T07:36:40.506Z,16.90
2023-12-03T07:39:07.337Z,15.93
2023-12-03T07:41:34.112Z,14.05
2023-12-03T07:44:00.872Z,20.45
2023-12-03T07:46:27.679Z,15.15
2023-12-03T07:48:54.961Z,13.38
2023-12-03T07:51:22.171Z,13.65
2023-12-03T07:53:49.069Z,14.52
2023-12-03T07:56:15.868Z,13.00
2023-12-03T07:58:42.671Z,18.15
2023-12-03T08:01:09.751Z,10.60
2023-12-03T08:03:36.591Z,14.68
2023-12-03T08:06:03.596Z,12.10
2023-12-03T08:08:30.420Z,10.00
2023-12-03T08:10:58.155Z,12.13
2023-12-03T08:13:24.969Z,11.43
2023-12-03T08:15:51.759Z,8.38
2023-12-03T08:18:18.587Z,8.82
2023-12-03T08:20:45.491Z,8.68
2023-12-03T08:23:12.260Z,14.35
2023-12-03T08:25:39.292Z,11.75
2023-12-03T08:28:06.851Z,9.63
2023-12-03T08:30:33.784Z,10.18
2023-12-03T08:33:00.624Z,14.40
2023-12-03T08:35:27.630Z,11.23
2023-12-03T08:37:54.476Z,10.40
2023-12-03T08:40:21.610Z,9.45
2023-12-03T08:42:48.494Z,22.48
2023-12-03T08:45:15.706Z,15.00
2023-12-03T08:47:43.216Z,10.02
2023-12-03T08:50:10.567Z,8.95
2023-12-03T08:52:37.630Z,7.72
2023-12-03T08:55:05.282Z,7.93
2023-12-03T08:57:32.961Z,8.75
2023-12-03T08:59:59.726Z,9.82
2023-12-03T09:02:26.584Z,10.65
2023-12-03T09:04:53.508Z,11.38
2023-12-03T09:07:20.437Z,10.18
2023-12-03T09:09:48.275Z,12.10
2023-12-03T09:12:16.417Z,9.07
2023-12-03T09:14:43.236Z,10.63
2023-12-03T09:17:10.489Z,14.27
2023-12-03T09:19:37.330Z,14.25
2023-12-03T09:22:04.508Z,19.98
2023-12-03T09:24:32.504Z,13.98
2023-12-03T09:27:00.117Z,16.60
2023-12-03T09:29:26.941Z,19.90
2023-12-03T09:31:56.799Z,15.55
2023-12-03T09:34:24.538Z,10.77
2023-12-03T09:36:51.398Z,14.52
2023-12-03T09:39:18.259Z,11.63
2023-12-03T09:41:55.391Z,10.65
2023-12-03T09:44:46.376Z,12.00
2023-12-03T09:47:15.909Z,11.15
2023-12-03T09:49:48.316Z,12.10
2023-12-03T09:52:15.947Z,9.93
2023-12-03T09:54:46.683Z,11.25
2023-12-03T09:57:15.896Z,13.18
2023-12-03T09:59:50.565Z,15.13
2023-12-03T10:02:18.556Z,16.92
2023-12-03T10:04:45.688Z,15.65
2023-12-03T10:07:13.162Z,15.27
2023-12-03T10:09:43.841Z,12.70
2023-12-03T10:12:17.719Z,15.73
2023-12-03T10:14:46.491Z,17.27
2023-12-03T10:17:23.293Z,13.15
2023-12-03T10:19:50.169Z,15.13
2023-12-03T10:22:16.988Z,14.85
2023-12-03T10:24:50.644Z,15.27
2023-12-03T10:27:18.036Z,15.57
2023-12-03T10:29:47.890Z,13.43
2023-12-03T10:32:14.773Z,13.05
2023-12-03T10:34:45.408Z,11.25
2023-12-03T10:37:15.125Z,15.13
2023-12-03T10:39:41.999Z,17.48
2023-12-03T10:42:09.636Z,14.38
2023-12-03T10:44:39.635Z,15.05
2023-12-03T10:47:06.625Z,19.85
2023-12-03T10:49:34.692Z,17.52
2023-12-03T10:52:02.931Z,16.38
2023-12-03T10:54:29.916Z,15.05
2023-12-03T10:56:56.992Z,20.70
2023-12-03T10:59:29.455Z,14.38
2023-12-03T11:01:59.506Z,14.52
2023-12-03T11:04:43.990Z,16.40
2023-12-03T11:07:16.965Z,16.45
2023-12-03T11:09:49.009Z,20.77
2023-12-03T11:12:19.363Z,27.10
2023-12-03T11:14:47.242Z,14.82
2023-12-03T11:17:26.172Z,15.63
2023-12-03T11:19:58.117Z,18.80
2023-12-03T11:22:34.933Z,17.85
2023-12-03T11:25:24.795Z,15.48
2023-12-03T11:27:53.463Z,16.58
2023-12-03T11:30:41.751Z,16.42
2023-12-03T11:33:20.983Z,17.30
2023-12-03T11:35:48.542Z,16.05
2023-12-03T11:38:29.629Z,17.83
2023-12-03T11:40:57.020Z,14.73
2023-12-03T11:43:25.910Z,14.48
2023-12-03T11:45:54.344Z,15.63
2023-12-03T11:48:22.864Z,15.18
2023-12-03T11:50:50.673Z,12.90
2023-12-03T11:53:25.048Z,14.57
2023-12-03T11:55:52.275Z,13.90
2023-12-03T11:58:23.762Z,14.63
2023-12-03T12:00:50.688Z,14.25
2023-12-03T12:03:17.914Z,16.40
2023-12-03T12:05:50.407Z,15.57
2023-12-03T12:08:22.921Z,15.07
2023-12-03T12:10:55.089Z,18.42
2023-12-03T12:13:24.988Z,21.95
2023-12-03T12:15:52.232Z,15.35
2023-12-03T12:18:21.239Z,14.45
2023-12-03T12:20:48.440Z,14.38
2023-12-03T12:23:16.610Z,18.70
2023-12-03T12:25:43.961Z,14.40
2023-12-03T12:28:11.598Z,16.95
2023-12-03T12:30:41.725Z,16.10
2023-12-03T12:33:10.158Z,16.52
2023-12-03T12:35:37.170Z,19.48
2023-12-03T12:38:07.828Z,18.65
2023-12-03T12:40:41.372Z,15.90
2023-12-03T12:43:13.586Z,15.80
2023-12-03T12:45:41.797Z,18.83
2023-12-03T12:48:34.953Z,14.95
2023-12-03T12:51:02.763Z,15.55
2023-12-03T12:54:05.463Z,15.93
2023-12-03T12:56:32.673Z,13.73
2023-12-03T12:59:00.198Z,20.10
2023-12-03T13:01:27.191Z,17.92
2023-12-03T13:03:54.047Z,20.95
2023-12-03T13:06:22.183Z,18.13
2023-12-03T13:08:49.092Z,15.68
2023-12-03T13:11:15.879Z,21.20
2023-12-03T13:13:42.695Z,17.58
2023-12-03T13:16:10.396Z,16.65
2023-12-03T13:18:39.205Z,15.82
2023-12-03T13:21:06.481Z,17.55
2023-12-03T13:23:34.436Z,24.13
2023-12-03T13:26:01.340Z,16.35
2023-12-03T13:28:28.130Z,19.70
2023-12-03T13:30:55.059Z,15.38
2023-12-03T13:33:22.020Z,18.67
2023-12-03T13:35:48.916Z,20.88
2023-12-03T13:38:15.798Z,19.27
2023-12-03T13:40:42.725Z,18.15
2023-12-03T13:43:09.577Z,17.67
2023-12-03T13:45:36.958Z,21.75
2023-12-03T13:48:04.154Z,18.63
2023-12-03T13:50:32.653Z,21.05
2023-12-03T13:52:59.502Z,26.58
2023-12-03T13:55:26.389Z,17.80
2023-12-03T13:57:54.364Z,23.25
2023-12-03T14:00:21.432Z,22.33
2023-12-03T14:02:48.450Z,21.40
2023-12-03T14:05:21.399Z,20.13
2023-12-03T14:07:56.505Z,17.50
2023-12-03T14:10:25.302Z,15.57
2023-12-03T14:12:52.878Z,22.20
2023-12-03T14:15:19.983Z,14.50
2023-12-03T14:17:47.174Z,16.13
2023-12-03T14:20:14.199Z,17.30
2023-12-03T14:22:41.718Z,19.60
2023-12-03T14:25:09.745Z,17.15
2023-12-03T14:27:36.671Z,21.40
2023-12-03T14:30:04.258Z,18.17
2023-12-03T14:32:31.165Z,16.13
2023-12-03T14:34:58.067Z,20.38
2023-12-03T14:37:24.965Z,17.50
2023-12-03T14:39:52.491Z,21.92
2023-12-03T14:42:19.490Z,16.27
2023-12-03T14:44:46.323Z,20.67
2023-12-03T14:47:13.128Z,20.65
2023-12-03T14:49:40.126Z,20.83
2023-12-03T14:52:07.161Z,18.25
2023-12-03T14:54:34.267Z,16.92
2023-12-03T14:57:01.238Z,18.25
2023-12-03T14:59:28.123Z,17.02
2023-12-03T15:01:55.040Z,16.52
2023-12-03T15:04:24.947Z,19.77
2023-12-03T15:06:52.034Z,16.80
2023-12-03T15:09:18.923Z,16.50
2023-12-03T15:11:45.792Z,18.42
2023-12-03T15:14:12.634Z,15.80
2023-12-03T15:16:39.960Z,14.00
2023-12-03T15:19:06.859Z,16.30
2023-12-03T15:21:36.358Z,13.93
2023-12-03T15:24:03.466Z,14.98
2023-12-03T15:26:30.344Z,18.08
2023-12-03T15:28:58.089Z,20.42
2023-12-03T15:31:25.009Z,18.80
2023-12-03T15:33:51.875Z,15.73
2023-12-03T15:36:18.782Z,17.05
2023-12-03T15:38:46.790Z,19.98
2023-12-03T15:41:15.483Z,16.75
2023-12-03T15:43:47.517Z,20.42
2023-12-03T15:46:15.460Z,16.42
2023-12-03T15:48:42.647Z,16.95
2023-12-03T15:51:10.001Z,15.43
2023-12-03T15:53:37.011Z,19.48
2023-12-03T15:56:04.580Z,17.33
2023-12-03T15:58:31.589Z,15.57
2023-12-03T16:00:58.568Z,22.20
2023-12-03T16:03:26.002Z,20.25
2023-12-03T16:05:52.971Z,17.65
2023-12-03T16:08:19.873Z,15.73
2023-12-03T16:10:47.080Z,21.95
2023-12-03T16:13:14.312Z,16.83
2023-12-03T16:15:41.282Z,16.17
2023-12-03T16:18:08.411Z,15.98
2023-12-03T16:20:35.912Z,15.93
2023-12-03T16:23:03.388Z,18.38
2023-12-03T16:25:30.581Z,12.98
2023-12-03T16:27:58.100Z,14.93
2023-12-03T16:30:25.241Z,15.20
2023-12-03T16:32:53.870Z,13.15
2023-12-03T16:35:22.937Z,13.55
2023-12-03T16:37:51.689Z,15.45
2023-12-03T16:40:28.345Z,13.27
2023-12-03T16:42:55.523Z,13.10
2023-12-03T16:45:22.505Z,16.02
2023-12-03T16:47:49.473Z,13.13
2023-12-03T16:50:16.845Z,13.52
2023-12-03T16:52:44.021Z,12.23
2023-12-03T16:55:11.321Z,15.35
2023-12-03T16:57:38.517Z,12.38
2023-12-03T17:00:06.511Z,11.32
2023-12-03T17:02:33.335Z,11.85
2023-12-03T17:05:00.958Z,11.02
2023-12-03T17:07:27.813Z,11.18
2023-12-03T17:09:54.909Z,11.52
2023-12-03T17:12:21.700Z,14.40
2023-12-03T17:14:48.487Z,12.05
2023-12-03T17:17:17.029Z,11.70
2023-12-03T17:19:44.231Z,11.27
2023-12-03T17:22:11.383Z,11.30
2023-12-03T17:24:38.964Z,11.00
2023-12-03T17:27:06.512Z,12.07
2023-12-03T17:29:33.432Z,10.15
2023-12-03T17:32:02.489Z,10.18
2023-12-03T17:34:29.569Z,9.07
2023-12-03T17:36:56.508Z,9.32
2023-12-03T17:39:23.281Z,8.45
2023-12-03T17:41:59.221Z,8.93
2023-12-03T17:44:26.410Z,9.85
2023-12-03T17:46:54.067Z,9.05
2023-12-03T17:49:21.097Z,8.52
2023-12-03T17:51:48.058Z,7.05
2023-12-03T17:54:15.496Z,8.55
2023-12-03T17:56:42.327Z,7.30
2023-12-03T17:59:09.213Z,7.82
2023-12-03T18:01:37.133Z,10.70
2023-12-03T18:04:04.470Z,8.48
2023-12-03T18:06:34.626Z,7.95
2023-12-03T18:09:02.189Z,7.75
2023-12-03T18:11:29.547Z,8.93
2023-12-03T18:13:57.052Z,7.65
2023-12-03T18:16:24.204Z,6.60
2023-12-03T18:18:53.822Z,8.57
2023-12-03T18:21:21.040Z,9.65
2023-12-03T18:23:49.388Z,9.05
2023-12-03T18:26:17.447Z,9.50
2023-12-03T18:28:45.842Z,9.23
2023-12-03T18:31:19.614Z,8.35
2023-12-03T18:33:47.331Z,8.90
2023-12-03T18:36:19.985Z,8.57
2023-12-03T18:38:48.604Z,7.40
2023-12-03T18:41:20.671Z,9.85
2023-12-03T18:43:47.831Z,10.90
2023-12-03T18:46:14.910Z,11.95
2023-12-03T18:48:42.100Z,12.63
2023-12-03T18:51:09.926Z,10.32
2023-12-03T18:53:36.788Z,10.70
2023-12-03T18:56:07.654Z,10.95
2023-12-03T18:58:35.370Z,11.27
2023-12-03T19:01:03.560Z,9.40
2023-12-03T19:03:30.654Z,12.20
2023-12-03T19:05:58.237Z,11.57
2023-12-03T19:08:32.792Z,11.15
2023-12-03T19:11:01.562Z,10.13
2023-12-03T19:13:30.640Z,13.10
2023-12-03T19:15:57.756Z,11.27
2023-12-03T19:18:25.210Z,10.55
2023-12-03T19:20:55.629Z,9.20
2023-12-03T19:23:25.802Z,11.95
2023-12-03T19:25:52.619Z,12.88
2023-12-03T19:28:19.412Z,11.55
2023-12-03T19:30:46.808Z,12.98
2023-12-03T19:33:15.520Z,12.30
2023-12-03T19:35:42.738Z,12.38
2023-12-03T19:38:11.615Z,13.45
2023-12-03T19:40:38.489Z,11.40
2023-12-03T19:43:05.467Z,13.88
2023-12-03T19:45:32.468Z,17.42
2023-12-03T19:47:59.602Z,16.17
2023-12-03T19:50:26.623Z,13.85
2023-12-03T19:52:55.421Z,13.23
2023-12-03T19:55:23.251Z,16.33
2023-12-03T19:57:53.601Z,13.20
2023-12-03T20:00:21.129Z,16.75
2023-12-03T20:02:50.110Z,14.30
2023-12-03T20:05:18.092Z,15.32
2023-12-03T20:07:45.641Z,13.52
2023-12-03T20:10:12.679Z,13.18
2023-12-03T20:12:39.956Z,15.40
2023-12-03T20:15:07.532Z,11.70
2023-12-03T20:17:34.605Z,12.77
2023-12-03T20:20:01.880Z,12.90
2023-12-03T20:22:28.907Z,13.73
2023-12-03T20:24:55.878Z,11.95
2023-12-03T20:27:22.781Z,10.25
2023-12-03T20:29:50.863Z,12.43
2023-12-03T20:32:18.166Z,11.80
2023-12-03T20:34:45.476Z,10.48
2023-12-03T20:37:13.077Z,13.10
2023-12-03T20:39:40.112Z,12.27
2023-12-03T20:42:07.093Z,10.43
2023-12-03T20:44:38.151Z,13.20
2023-12-03T20:47:06.588Z,9.60
2023-12-03T20:49:34.273Z,12.82
2023-12-03T20:52:01.650Z,11.98
2023-12-03T20:54:28.538Z,12.18
2023-12-03T20:56:55.506Z,11.10
2023-12-03T20:59:22.550Z,13.02
2023-12-03T21:01:49.853Z,10.55
2023-12-03T21:04:16.959Z,11.85
2023-12-03T21:06:43.870Z,11.45
2023-12-03T21:09:11.064Z,13.88
2023-12-03T21:11:37.917Z,10.90
2023-12-03T21:14:04.904Z,15.50
2023-12-03T21:16:31.717Z,16.05
2023-12-03T21:18:59.484Z,9.77
2023-12-03T21:21:26.385Z,12.38
2023-12-03T21:23:53.197Z,11.75
2023-12-03T21:26:20.083Z,12.25
2023-12-03T21:28:47.196Z,13.25
2023-12-03T21:31:14.051Z,8.98
2023-12-03T21:33:40.989Z,8.95
2023-12-03T21:36:08.873Z,11.27
2023-12-03T21:38:35.849Z,9.43
2023-12-03T21:41:02.777Z,8.48
2023-12-03T21:43:29.560Z,11.02
2023-12-03T21:45:58.292Z,10.10
2023-12-03T21:48:25.461Z,10.80
2023-12-03T21:50:52.310Z,8.90
2023-12-03T21:53:19.178Z,10.38
2023-12-03T21:55:46.078Z,8.88
2023-12-03T21:58:14.822Z,9.25
2023-12-03T22:00:41.893Z,10.43
2023-12-03T22:03:08.866Z,9.07
2023-12-03T22:05:35.663Z,9.90
2023-12-03T22:08:02.781Z,8.50
2023-12-03T22:10:29.592Z,9.43
2023-12-03T22:12:58.167Z,10.93
2023-12-03T22:15:25.687Z,10.38
2023-12-03T22:17:52.875Z,9.13
2023-12-03T22:20:19.699Z,8.50
2023-12-03T22:22:46.978Z,9.95
2023-12-03T22:25:13.861Z,10.18
2023-12-03T22:27:40.703Z,7.03
2023-12-03T22:30:16.026Z,9.98
2023-12-03T22:32:44.153Z,6.90
2023-12-03T22:35:11.064Z,6.78
2023-12-03T22:37:38.033Z,7.00
2023-12-03T22:40:06.631Z,5.78
2023-12-03T22:42:33.686Z,7.53
2023-12-03T22:45:00.530Z,6.93
2023-12-03T22:47:27.663Z,8.50
2023-12-03T22:49:54.676Z,6.93
2023-12-03T22:52:21.549Z,8.02
2023-12-03T22:54:48.454Z,6.03
2023-12-03T22:57:15.416Z,5.45
2023-12-03T22:59:44.615Z,6.50
2023-12-03T23:02:11.890Z,8.10
2023-12-03T23:04:39.315Z,8.30
2023-12-03T23:07:06.609Z,6.35
2023-12-03T23:09:36.349Z,5.68
2023-12-03T23:12:05.155Z,4.97
2023-12-03T23:14:32.018Z,4.63
2023-12-03T23:16:59.186Z,4.28
2023-12-03T23:19:27.043Z,5.47
2023-12-03T23:21:54.642Z,4.97
2023-12-03T23:24:21.869Z,5.30
2023-12-03T23:26:48.824Z,5.03
2023-12-03T23:29:15.852Z,5.07
2023-12-03T23:31:42.970Z,7.43
2023-12-03T23:34:10.104Z,4.95
2023-12-03T23:36:41.706Z,4.80
2023-12-03T23:39:08.770Z,6.32
2023-12-03T23:41:37.349Z,5.85
2023-12-03T23:44:05.650Z,4.55
2023-12-03T23:46:33.574Z,3.63
2023-12-03T23:49:00.502Z,4.47
2023-12-03T23:51:27.375Z,4.22
2023-12-03T23:53:54.403Z,5.10
2023-12-03T23:56:24.746Z,6.05
2023-12-03T23:58:54.394Z,4.68
